Time;durP1;ratioP1;P1;durP2;ratioP2;P2;SDS_P1;SDS_P2;PMS_P1;PMS_P2;Temp;Humidity;BMP_temperature;BMP_pressure;BME280_temperature;BME280_humidity;BME280_pressure;Samples;Min_cycle;Max_cycle;Signal;HPM_P1;HPM_P2
2022/05/01 00:02:07;;;;;;;6.10;3.65;;;308.00;2304.00;;;;;;5050549;28;20032;-60
2022/05/01 00:04:33;;;;;;;8.23;3.70;;;308.10;2304.00;;;;;;5050594;28;20025;-59
2022/05/01 00:06:59;;;;;;;5.57;3.22;;;308.10;2304.00;;;;;;5049904;28;20045;-60
2022/05/01 00:09:25;;;;;;;7.22;3.40;;;308.10;2304.00;;;;;;5050552;28;20029;-60
2022/05/01 00:11:51;;;;;;;5.70;3.67;;;308.00;2304.00;;;;;;5050519;28;20017;-59
2022/05/01 00:14:17;;;;;;;7.15;4.25;;;308.00;2304.00;;;;;;5049944;28;20029;-59
2022/05/01 00:16:43;;;;;;;7.10;3.72;;;308.10;2304.00;;;;;;5050289;28;20021;-60
2022/05/01 00:19:09;;;;;;;6.75;3.72;;;308.10;2304.00;;;;;;5050125;28;20025;-59
2022/05/01 00:21:38;;;;;;;4.57;3.55;;;332.80;2329.60;;;;;;5050391;28;20028;-60
2022/05/01 00:24:07;;;;;;;6.47;4.30;;;308.10;2304.00;;;;;;5050358;28;20108;-58
2022/05/01 00:26:33;;;;;;;7.30;4.50;;;332.80;2329.60;;;;;;5049983;28;20104;-59
2022/05/01 00:29:02;;;;;;;5.18;2.90;;;332.80;2329.60;;;;;;5049922;28;20048;-61
2022/05/01 00:31:28;;;;;;;5.75;3.28;;;332.80;2329.60;;;;;;5049975;28;20094;-61
2022/05/01 00:36:38;;;;;;;6.15;3.70;;;332.80;2329.60;;;;;;5050167;28;20425;-60
2022/05/01 00:39:06;;;;;;;5.93;3.55;;;308.10;2304.00;;;;;;5049854;28;20116;-61
2022/05/01 00:41:36;;;;;;;4.20;2.85;;;308.10;2304.00;;;;;;5050293;28;20024;-60
2022/05/01 00:44:13;;;;;;;5.55;3.42;;;308.10;2304.00;;;;;;5050264;28;20255;-61
2022/05/01 00:46:41;;;;;;;6.00;3.65;;;308.10;2304.00;;;;;;5049636;28;20040;-59
2022/05/01 00:49:11;;;;;;;5.68;3.60;;;308.10;2304.00;;;;;;5049727;28;20017;-60
2022/05/01 00:52:00;;;;;;;4.85;2.90;;;332.80;2329.60;;;;;;5049755;28;20060;-59
2022/05/01 00:54:30;;;;;;;4.38;3.53;;;332.80;2329.60;;;;;;5049982;28;20518;-60
2022/05/01 00:57:03;;;;;;;9.95;4.80;;;332.90;2329.60;;;;;;5049845;28;20029;-59
2022/05/01 00:59:31;;;;;;;6.03;4.28;;;332.90;2329.60;;;;;;5050081;28;20032;-60
2022/05/01 01:01:57;;;;;;;7.65;4.22;;;332.90;2329.60;;;;;;5053792;28;20025;-61
2022/05/01 01:04:23;;;;;;;6.15;4.03;;;333.00;2329.60;;;;;;5053841;28;20028;-59
2022/05/01 01:06:49;;;;;;;6.97;4.45;;;333.00;2329.60;;;;;;5053425;28;20064;-61
2022/05/01 01:09:16;;;;;;;4.68;3.38;;;332.90;2329.60;;;;;;5053970;28;20490;-61
2022/05/01 01:11:42;;;;;;;9.43;4.80;;;332.90;2329.60;;;;;;5053940;28;20029;-61
2022/05/01 01:14:09;;;;;;;8.38;4.75;;;332.90;2329.60;;;;;;5053731;28;20112;-61
2022/05/01 01:16:36;;;;;;;7.05;4.80;;;332.90;2329.60;;;;;;5053860;28;20049;-60
2022/05/01 01:19:09;;;;;;;7.30;4.82;;;333.00;2329.60;;;;;;5053643;28;20029;-60
2022/05/01 01:21:35;;;;;;;8.30;4.53;;;332.90;2329.60;;;;;;5053734;28;20036;-61
2022/05/01 01:24:03;;;;;;;5.35;3.72;;;332.90;2329.60;;;;;;5053404;28;20134;-59
2022/05/01 01:26:31;;;;;;;9.13;4.60;;;333.00;2329.60;;;;;;5053257;28;20035;-60
2022/05/01 01:28:57;;;;;;;6.55;4.40;;;333.00;2329.60;;;;;;5053308;28;20029;-60
2022/05/01 01:31:41;;;;;;;9.52;4.53;;;333.10;2329.60;;;;;;5053529;28;20028;-60
2022/05/01 01:34:14;;;;;;;9.40;5.25;;;333.10;2329.60;;;;;;5053349;28;20036;-61
2022/05/01 01:36:42;;;;;;;7.32;4.20;;;333.00;2329.60;;;;;;5053132;28;20056;-59
2022/05/01 01:39:07;;;;;;;5.97;4.00;;;333.00;2329.60;;;;;;5053373;28;20033;-60
2022/05/01 01:41:35;;;;;;;5.88;4.25;;;332.90;2329.60;;;;;;5053278;28;20083;-60
2022/05/01 01:44:01;;;;;;;9.10;3.60;;;332.90;2329.60;;;;;;5053090;28;20032;-60
2022/05/01 01:46:26;;;;;;;6.05;3.97;;;308.10;2304.00;;;;;;5053026;28;20056;-61
2022/05/01 01:48:53;;;;;;;6.72;4.07;;;332.80;2329.60;;;;;;5053402;28;20033;-60
2022/05/01 01:51:19;;;;;;;6.03;3.35;;;332.80;2329.60;;;;;;5053206;28;20033;-61
2022/05/01 01:53:45;;;;;;;5.35;4.00;;;332.90;2329.60;;;;;;5053137;28;20032;-58
2022/05/01 01:56:11;;;;;;;8.05;4.28;;;332.90;2329.60;;;;;;5052811;28;20025;-59
2022/05/01 01:58:39;;;;;;;5.43;3.55;;;333.00;2329.60;;;;;;5052828;28;20047;-61
2022/05/01 02:01:06;;;;;;;7.70;5.07;;;333.00;2329.60;;;;;;5052868;28;20028;-61
2022/05/01 02:03:33;;;;;;;7.85;5.28;;;333.10;2329.60;;;;;;5053082;28;20308;-60
2022/05/01 02:05:59;;;;;;;8.88;5.47;;;333.00;2329.60;;;;;;5052633;28;20037;-60
2022/05/01 02:08:25;;;;;;;6.65;4.05;;;333.00;2329.60;;;;;;5052533;28;20135;-60
2022/05/01 02:10:52;;;;;;;7.95;4.68;;;333.10;2329.60;;;;;;5052403;28;20444;-60
2022/05/01 02:13:18;;;;;;;8.63;4.82;;;333.10;2329.60;;;;;;5051769;28;20035;-60
2022/05/01 02:15:45;;;;;;;7.03;4.38;;;333.20;2329.60;;;;;;5052584;28;20103;-59
2022/05/01 02:18:11;;;;;;;4.25;3.67;;;333.10;2329.60;;;;;;5052636;28;20439;-61
2022/05/01 02:23:23;;;;;;;6.88;4.00;;;333.10;2329.60;;;;;;5052785;28;20079;-60
2022/05/01 02:25:49;;;;;;;6.40;3.85;;;333.10;2329.60;;;;;;5052330;28;20117;-60
2022/05/01 02:28:16;;;;;;;5.50;3.22;;;332.90;2329.60;;;;;;5052231;28;20115;-58
2022/05/01 02:30:42;;;;;;;6.30;4.15;;;333.00;2329.60;;;;;;5052366;28;20502;-60
2022/05/01 02:33:08;;;;;;;4.43;3.53;;;333.00;2329.60;;;;;;5052137;28;20537;-60
2022/05/01 02:35:37;;;;;;;6.03;3.70;;;332.90;2329.60;;;;;;5052234;28;20033;-60
2022/05/01 02:38:04;;;;;;;5.20;3.47;;;333.00;2329.60;;;;;;5052210;28;20041;-60
2022/05/01 02:40:30;;;;;;;5.80;3.58;;;333.00;2329.60;;;;;;5051693;28;20025;-62
2022/05/01 02:42:59;;;;;;;5.28;3.30;;;332.90;2329.60;;;;;;5052003;28;20029;-60
2022/05/01 02:45:29;;;;;;;8.25;4.22;;;332.90;2329.60;;;;;;5052035;28;20025;-61
2022/05/01 02:47:55;;;;;;;4.72;3.35;;;332.90;2329.60;;;;;;5051902;28;20072;-59
2022/05/01 02:50:22;;;;;;;5.82;3.75;;;333.00;2329.60;;;;;;5052068;28;20028;-61
2022/05/01 02:52:51;;;;;;;5.55;3.80;;;333.00;2329.60;;;;;;5051584;28;20036;-61
2022/05/01 02:55:17;;;;;;;6.93;3.45;;;333.00;2329.60;;;;;;5051697;28;20021;-61
2022/05/01 02:57:43;;;;;;;7.32;4.05;;;333.00;2329.60;;;;;;5051847;28;20475;-60
2022/05/01 03:00:16;;;;;;;6.72;4.68;;;333.10;2329.60;;;;;;5051910;28;20021;-58
2022/05/01 03:02:46;;;;;;;6.50;3.78;;;333.20;2329.60;;;;;;5033850;28;20430;-58
2022/05/01 03:05:12;;;;;;;6.78;3.95;;;333.10;2329.60;;;;;;5051966;28;20025;-58
2022/05/01 03:07:38;;;;;;;6.53;4.43;;;333.10;2329.60;;;;;;5051306;28;20045;-60
2022/05/01 03:10:04;;;;;;;5.88;3.10;;;333.00;2329.60;;;;;;5051562;28;20060;-60
2022/05/01 03:12:30;;;;;;;8.15;3.95;;;333.10;2329.60;;;;;;5051294;28;20037;-59
2022/05/01 03:14:57;;;;;;;7.82;3.75;;;332.90;2329.60;;;;;;5051365;28;20025;-58
2022/05/01 03:17:23;;;;;;;6.03;3.55;;;332.90;2329.60;;;;;;5051458;28;20087;-59
2022/05/01 03:22:33;;;;;;;8.25;4.32;;;333.00;2329.60;;;;;;5051193;28;20120;-60
2022/05/01 03:24:59;;;;;;;5.88;3.20;;;333.00;2329.60;;;;;;5051187;28;20045;-58
2022/05/01 03:27:24;;;;;;;7.43;3.92;;;333.00;2329.60;;;;;;5051192;28;20028;-58
2022/05/01 03:32:35;;;;;;;6.47;4.32;;;333.00;2329.60;;;;;;5051451;28;20031;-59
2022/05/01 03:35:02;;;;;;;4.90;3.35;;;333.10;2329.60;;;;;;5051072;28;20586;-58
2022/05/01 03:37:29;;;;;;;7.13;4.47;;;333.00;2329.60;;;;;;5050694;28;20037;-58
2022/05/01 03:39:55;;;;;;;8.63;4.00;;;333.10;2329.60;;;;;;5050953;28;20033;-60
2022/05/01 03:42:20;;;;;;;7.30;4.03;;;333.10;2329.60;;;;;;5050908;28;20021;-60
2022/05/01 03:44:46;;;;;;;6.65;4.07;;;333.10;2329.60;;;;;;5050818;28;20104;-60
2022/05/01 03:47:12;;;;;;;8.40;4.45;;;333.10;2329.60;;;;;;5050769;28;20033;-59
2022/05/01 03:49:37;;;;;;;9.80;5.10;;;333.10;2329.60;;;;;;5050711;28;20048;-60
2022/05/01 03:52:04;;;;;;;10.13;5.15;;;333.10;2329.60;;;;;;5050916;28;20104;-58
2022/05/01 03:54:29;;;;;;;7.22;4.55;;;333.20;2329.60;;;;;;5050463;28;20055;-60
2022/05/01 03:56:55;;;;;;;7.95;4.18;;;333.20;2329.60;;;;;;5051022;28;20029;-58
2022/05/01 03:59:21;;;;;;;6.80;4.95;;;333.20;2329.60;;;;;;5050608;28;20490;-60
2022/05/01 04:01:46;;;;;;;9.40;5.38;;;333.20;2329.60;;;;;;5050677;28;20163;-60
2022/05/01 04:04:12;;;;;;;8.57;4.85;;;333.20;2329.60;;;;;;5050745;28;20482;-59
2022/05/01 04:06:38;;;;;;;6.68;4.63;;;333.20;2329.60;;;;;;5050090;28;20033;-61
2022/05/01 04:09:03;;;;;;;10.43;5.18;;;333.30;2329.60;;;;;;5050527;28;20039;-59
2022/05/01 04:11:29;;;;;;;8.75;5.35;;;333.30;2329.60;;;;;;5050228;28;20039;-60
2022/05/01 04:13:55;;;;;;;8.07;5.32;;;333.20;2329.60;;;;;;5050494;28;20029;-59
2022/05/01 04:16:21;;;;;;;6.65;4.80;;;333.20;2329.60;;;;;;5050449;28;20025;-58
2022/05/01 04:18:46;;;;;;;7.30;4.72;;;333.30;2329.60;;;;;;5050072;28;20021;-59
2022/05/01 04:21:13;;;;;;;8.13;4.65;;;333.30;2329.60;;;;;;5050472;28;20124;-59
2022/05/01 04:23:40;;;;;;;11.05;5.80;;;333.30;2329.60;;;;;;5050263;28;20056;-58
2022/05/01 04:26:05;;;;;;;8.82;5.25;;;333.40;2329.60;;;;;;5050280;28;20029;-59
2022/05/01 04:28:31;;;;;;;10.30;5.15;;;333.40;2329.60;;;;;;5050183;28;20082;-60
2022/05/01 04:30:57;;;;;;;7.10;4.60;;;333.20;2329.60;;;;;;5050116;28;20021;-59
2022/05/01 04:33:23;;;;;;;6.05;3.90;;;333.00;2329.60;;;;;;5050157;28;20104;-60
2022/05/01 04:35:50;;;;;;;6.10;4.20;;;332.80;2329.60;;;;;;5049176;28;20036;-61
2022/05/01 04:38:17;;;;;;;5.40;3.80;;;332.90;2329.60;;;;;;5049906;28;20060;-59
2022/05/01 04:40:59;;;;;;;6.30;4.38;;;333.00;2329.60;;;;;;5049969;28;20391;-59
2022/05/01 04:43:26;;;;;;;6.63;3.80;;;333.30;2329.60;;;;;;5050148;28;20029;-60
2022/05/01 04:45:56;;;;;;;8.55;4.50;;;333.60;2329.60;;;;;;5049984;28;20017;-59
2022/05/01 04:48:23;;;;;;;8.32;4.72;;;358.40;2329.60;;;;;;5049813;28;20072;-59
2022/05/01 04:50:50;;;;;;;17.20;9.82;;;358.50;2329.60;;;;;;5049918;28;20025;-61
2022/05/01 04:53:17;;;;;;;9.75;6.22;;;358.50;2329.60;;;;;;5050009;28;20029;-60
2022/05/01 04:55:46;;;;;;;9.20;5.38;;;358.60;2329.60;;;;;;5050043;28;20048;-60
2022/05/01 04:58:15;;;;;;;8.75;5.85;;;358.90;2329.60;;;;;;5049861;28;20407;-58
2022/05/01 05:00:41;;;;;;;9.45;5.10;;;359.20;2329.60;;;;;;5049828;28;20021;-61
2022/05/01 05:03:07;;;;;;;10.18;5.95;;;384.10;2329.60;;;;;;5049872;28;20025;-59
2022/05/01 05:05:36;;;;;;;9.05;6.85;;;384.50;2329.60;;;;;;5049688;28;20115;-59
2022/05/01 05:10:48;;;;;;;5.25;4.00;;;410.00;2355.20;;;;;;5049872;28;20411;-59
2022/05/01 05:13:15;;;;;;;11.35;6.28;;;410.00;2355.20;;;;;;5049914;28;20070;-60
2022/05/01 05:15:41;;;;;;;10.85;6.80;;;384.80;2329.60;;;;;;5049758;28;20502;-58
2022/05/01 05:18:07;;;;;;;11.63;7.43;;;384.50;2329.60;;;;;;5049560;28;20029;-59
2022/05/01 05:20:34;;;;;;;11.40;7.05;;;384.70;2329.60;;;;;;5049666;28;20071;-61
2022/05/01 05:22:59;;;;;;;8.32;5.85;;;384.70;2329.60;;;;;;5049728;28;20099;-59
2022/05/01 05:25:25;;;;;;;9.02;5.57;;;384.90;2329.60;;;;;;5049677;28;20029;-59
2022/05/01 05:27:51;;;;;;;8.85;4.88;;;384.90;2329.60;;;;;;5049440;28;20041;-60
2022/05/01 05:30:17;;;;;;;5.65;3.83;;;384.90;2329.60;;;;;;5049425;28;20021;-59
2022/05/01 05:32:44;;;;;;;6.57;4.25;;;384.80;2329.60;;;;;;5049673;28;20542;-58
2022/05/01 05:35:09;;;;;;;5.97;4.07;;;409.70;2355.20;;;;;;5049480;28;20024;-58
2022/05/01 05:37:35;;;;;;;5.57;4.78;;;410.20;2355.20;;;;;;5049399;28;20063;-58
2022/05/01 05:40:01;;;;;;;8.32;4.30;;;435.40;2355.20;;;;;;5049146;28;20029;-59
2022/05/01 05:42:27;;;;;;;6.75;4.55;;;435.60;2355.20;;;;;;5049377;28;20349;-59
2022/05/01 05:44:53;;;;;;;6.53;5.22;;;460.80;2380.80;;;;;;5049531;28;20036;-58
2022/05/01 05:47:18;;;;;;;11.50;6.57;;;486.90;2380.80;;;;;;5052137;28;20390;-60
2022/05/01 05:49:44;;;;;;;8.20;5.60;;;486.70;2380.80;;;;;;5052954;28;20025;-59
2022/05/01 05:52:10;;;;;;;12.48;7.00;;;486.70;2380.80;;;;;;5052737;28;20025;-58
2022/05/01 05:54:36;;;;;;;13.60;8.63;;;486.60;2380.80;;;;;;5053190;28;20466;-61
2022/05/01 05:57:01;;;;;;;10.63;6.18;;;486.50;2380.80;;;;;;5053136;28;20098;-59
2022/05/01 05:59:27;;;;;;;10.05;6.28;;;486.40;2380.80;;;;;;5052803;28;20483;-60
2022/05/01 06:01:53;;;;;;;10.40;6.75;;;461.70;2380.80;;;;;;5052924;28;20029;-59
2022/05/01 06:04:19;;;;;;;12.60;6.90;;;486.70;2380.80;;;;;;5052732;28;20096;-58
2022/05/01 06:06:44;;;;;;;10.25;6.38;;;487.00;2380.80;;;;;;5048770;28;20119;-59
2022/05/01 06:09:10;;;;;;;8.68;6.22;;;486.70;2380.80;;;;;;5032790;28;20120;-61
2022/05/01 06:11:36;;;;;;;9.48;6.88;;;486.70;2380.80;;;;;;5032977;28;20021;-61
2022/05/01 06:14:03;;;;;;;10.32;6.60;;;486.40;2380.80;;;;;;5014697;28;20479;-59
2022/05/01 06:16:28;;;;;;;12.20;7.55;;;486.70;2380.80;;;;;;5032833;28;20099;-59
2022/05/01 06:18:54;;;;;;;9.10;5.82;;;512.90;2304.00;;;;;;5032783;28;20460;-59
2022/05/01 06:21:20;;;;;;;9.13;7.05;;;512.60;2278.40;;;;;;5032279;28;20033;-60
2022/05/01 06:23:48;;;;;;;6.95;5.03;;;512.10;2380.80;;;;;;5032653;28;20029;-59
2022/05/01 06:26:14;;;;;;;7.80;5.53;;;487.30;2176.00;;;;;;5032705;28;20497;-59
2022/05/01 06:28:40;;;;;;;8.70;6.60;;;512.60;2227.20;;;;;;5032355;28;20033;-59
2022/05/01 06:31:06;;;;;;;10.57;7.07;;;563.60;2073.60;;;;;;5032558;28;20033;-59
2022/05/01 06:33:35;;;;;;;7.13;6.40;;;589.70;1817.60;;;;;;5032391;28;20087;-62
2022/05/01 06:36:01;;;;;;;12.18;6.68;;;640.40;1689.60;;;;;;5032003;28;20032;-60
2022/05/01 06:38:28;;;;;;;7.00;6.03;;;666.10;1587.20;;;;;;5032411;28;20384;-60
2022/05/01 06:40:54;;;;;;;6.75;5.75;;;691.60;1484.80;;;;;;5032438;28;20018;-59
2022/05/01 06:43:20;;;;;;;6.55;5.07;;;640.90;1510.40;;;;;;5032189;28;20495;-60
2022/05/01 06:45:47;;;;;;;7.30;6.60;;;666.50;1459.20;;;;;;5032056;28;20029;-60
2022/05/01 06:48:13;;;;;;;8.38;7.55;;;768.10;1331.20;;;;;;5031958;28;20037;-61
2022/05/01 06:50:40;;;;;;;7.43;6.82;;;819.20;1228.80;;;;;;5031878;28;20108;-60
2022/05/01 06:53:06;;;;;;;7.28;6.40;;;819.30;1254.40;;;;;;5031979;28;20026;-60
2022/05/01 06:55:33;;;;;;;8.98;8.10;;;896.50;1075.20;;;;;;5032157;28;20021;-60
2022/05/01 06:57:58;;;;;;;8.00;7.28;;;845.00;1177.60;;;;;;5031189;28;20098;-61
2022/05/01 07:00:25;;;;;;;6.03;5.22;;;845.40;1152.00;;;;;;5032262;28;20060;-61
2022/05/01 07:02:52;;;;;;;5.57;4.60;;;794.00;1203.20;;;;;;5031766;28;20025;-61
2022/05/01 07:05:19;;;;;;;6.72;5.20;;;691.80;1356.80;;;;;;5031862;28;20026;-62
2022/05/01 07:07:46;;;;;;;8.27;5.43;;;640.00;1510.40;;;;;;5031329;28;20059;-60
2022/05/01 07:10:13;;;;;;;5.35;4.65;;;615.30;1510.40;;;;;;5031926;28;20034;-60
2022/05/01 07:12:38;;;;;;;7.97;5.18;;;589.60;1587.20;;;;;;5031699;28;20097;-60
2022/05/01 07:15:05;;;;;;;8.00;5.25;;;615.00;1536.00;;;;;;5031646;28;20021;-62
2022/05/01 07:17:32;;;;;;;5.68;4.35;;;589.70;1587.20;;;;;;5031895;28;20036;-59
2022/05/01 07:19:58;;;;;;;7.47;4.72;;;589.70;1587.20;;;;;;5031406;28;20017;-61
2022/05/01 07:22:24;;;;;;;6.57;4.35;;;589.00;1638.40;;;;;;5031393;28;20431;-60
2022/05/01 07:24:50;;;;;;;9.88;8.88;;;564.00;1689.60;;;;;;5031470;28;20029;-59
2022/05/01 07:27:16;;;;;;;9.48;8.57;;;563.70;1715.20;;;;;;5031116;28;20526;-61
2022/05/01 07:29:42;;;;;;;4.72;3.97;;;563.60;1740.80;;;;;;5031945;28;20041;-60
2022/05/01 07:32:09;;;;;;;6.22;4.57;;;563.50;1740.80;;;;;;5031235;28;20372;-59
2022/05/01 07:34:34;;;;;;;5.03;3.30;;;563.50;1740.80;;;;;;5031197;28;20060;-60
2022/05/01 07:37:00;;;;;;;4.72;3.30;;;538.50;1740.80;;;;;;5049471;28;20057;-61
2022/05/01 07:39:26;;;;;;;4.38;3.13;;;563.20;1766.40;;;;;;5051241;28;20029;-60
2022/05/01 07:41:53;;;;;;;4.15;3.08;;;563.50;1715.20;;;;;;5051037;28;20017;-62
2022/05/01 07:44:18;;;;;;;4.32;2.30;;;538.20;1740.80;;;;;;5050731;28;20029;-59
2022/05/01 07:46:45;;;;;;;4.38;2.55;;;589.00;1612.80;;;;;;5050550;28;20471;-63
2022/05/01 07:49:11;;;;;;;3.25;2.17;;;563.20;1664.00;;;;;;5050917;28;20136;-61
2022/05/01 07:51:37;;;;;;;4.47;2.60;;;538.50;1664.00;;;;;;5050528;28;20021;-61
2022/05/01 07:54:04;;;;;;;4.10;2.17;;;512.90;1689.60;;;;;;5050760;28;20033;-61
2022/05/01 07:56:31;;;;;;;4.45;3.15;;;512.70;1715.20;;;;;;5050951;28;20025;-60
2022/05/01 07:58:57;;;;;;;3.10;2.20;;;512.70;1689.60;;;;;;5050497;28;20029;-62
2022/05/01 08:01:23;;;;;;;3.28;2.20;;;512.50;1715.20;;;;;;5050502;28;20021;-60
2022/05/01 08:06:35;;;;;;;4.18;3.17;;;538.00;1689.60;;;;;;5050687;28;21199;-61
2022/05/01 08:09:01;;;;;;;4.53;3.45;;;538.10;1689.60;;;;;;5049584;28;20120;-64
2022/05/01 08:11:27;;;;;;;4.40;3.25;;;563.20;1715.20;;;;;;5050210;28;20108;-62
2022/05/01 08:13:53;;;;;;;4.18;2.13;;;563.60;1664.00;;;;;;5050540;28;20053;-62
2022/05/01 08:16:20;;;;;;;3.65;2.38;;;563.20;1664.00;;;;;;5050260;28;20019;-61
2022/05/01 08:21:32;;;;;;;4.43;2.58;;;537.90;1689.60;;;;;;5050168;28;20048;-61
2022/05/01 08:23:59;;;;;;;4.40;3.10;;;538.00;1689.60;;;;;;5050267;28;20025;-59
2022/05/01 08:26:25;;;;;;;6.60;3.67;;;512.90;1689.60;;;;;;5050224;28;20028;-59
2022/05/01 08:28:55;;;;;;;4.15;2.72;;;537.70;1715.20;;;;;;5050021;28;20430;-58
2022/05/01 08:31:21;;;;;;;4.25;2.70;;;512.90;1715.20;;;;;;5050081;28;20105;-59
2022/05/01 08:33:47;;;;;;;3.53;2.75;;;512.70;1740.80;;;;;;5049890;28;20029;-57
2022/05/01 08:36:13;;;;;;;5.00;2.85;;;537.70;1740.80;;;;;;5029876;28;20383;-58
2022/05/01 08:38:39;;;;;;;4.35;2.50;;;512.70;1740.80;;;;;;5040273;28;20021;-57
2022/05/01 08:41:07;;;;;;;4.40;2.65;;;512.50;1740.80;;;;;;5035318;28;20080;-61
2022/05/01 08:43:34;;;;;;;4.75;2.90;;;512.60;1740.80;;;;;;5030114;28;20027;-58
2022/05/01 08:46:30;;;;;;;3.72;2.72;;;512.40;1766.40;;;;;;5029870;28;20029;-60
2022/05/01 08:49:04;;;;;;;3.42;2.53;;;512.50;1740.80;;;;;;5034956;28;20039;-57
2022/05/01 08:51:32;;;;;;;8.63;4.78;;;512.80;1715.20;;;;;;5032445;28;20053;-57
2022/05/01 08:53:59;;;;;;;5.95;3.58;;;512.70;1740.80;;;;;;5029793;28;20034;-59
2022/05/01 08:56:25;;;;;;;5.78;4.28;;;512.20;1792.00;;;;;;5030154;28;20048;-59
2022/05/01 08:58:52;;;;;;;4.63;2.88;;;512.30;1792.00;;;;;;5029819;28;20026;-60
2022/05/01 09:01:18;;;;;;;4.50;2.60;;;487.30;1843.20;;;;;;5029884;28;20092;-60
2022/05/01 09:03:44;;;;;;;5.55;3.45;;;487.30;1843.20;;;;;;5030014;28;20025;-57
2022/05/01 09:06:11;;;;;;;10.38;4.80;;;487.00;1894.40;;;;;;5029692;28;20036;-60
2022/05/01 09:08:40;;;;;;;8.25;4.00;;;486.70;1945.60;;;;;;5029628;28;20061;-58
2022/05/01 09:13:52;;;;;;;4.20;2.83;;;487.10;1894.40;;;;;;5029894;28;20422;-62
2022/05/01 09:16:17;;;;;;;3.88;2.80;;;486.80;1945.60;;;;;;5029700;28;20017;-61
2022/05/01 09:18:46;;;;;;;4.25;2.67;;;487.00;1945.60;;;;;;5029888;28;20071;-59
2022/05/01 09:21:13;;;;;;;4.70;2.90;;;486.80;1945.60;;;;;;5031435;28;20029;-60
2022/05/01 09:23:46;;;;;;;3.50;2.85;;;486.60;1996.80;;;;;;5033528;28;20025;-63
2022/05/01 09:26:14;;;;;;;3.55;2.58;;;486.50;2048.00;;;;;;5033692;28;20030;-59
2022/05/01 09:28:50;;;;;;;5.72;2.90;;;486.70;2048.00;;;;;;5033417;28;20488;-61
2022/05/01 09:31:17;;;;;;;5.75;3.55;;;486.70;2048.00;;;;;;5033707;28;20022;-61
2022/05/01 09:33:43;;;;;;;7.57;3.67;;;486.50;2099.20;;;;;;5033516;28;20056;-60
2022/05/01 09:36:28;;;;;;;5.68;3.45;;;486.70;2099.20;;;;;;5033221;28;20100;-60
2022/05/01 09:39:04;;;;;;;7.10;3.10;;;486.70;2099.20;;;;;;5033305;28;20369;-59
2022/05/01 09:41:30;;;;;;;3.17;2.13;;;487.00;2073.60;;;;;;5033360;28;20021;-62
2022/05/01 09:43:56;;;;;;;3.92;2.60;;;487.30;2022.40;;;;;;5033408;28;20025;-64
2022/05/01 09:46:24;;;;;;;5.00;3.28;;;512.30;2048.00;;;;;;5033440;28;20404;-63
2022/05/01 09:49:09;;;;;;;3.58;2.50;;;512.10;2048.00;;;;;;5032967;28;20471;-63
2022/05/01 09:51:47;;;;;;;5.43;3.40;;;512.90;1971.20;;;;;;5033240;28;20017;-62
2022/05/01 09:54:23;;;;;;;3.63;2.67;;;512.90;1971.20;;;;;;5033377;28;20025;-63
2022/05/01 09:56:52;;;;;;;3.65;2.42;;;537.80;1971.20;;;;;;5033181;28;20035;-58
2022/05/01 09:59:23;;;;;;;5.40;2.67;;;537.90;1971.20;;;;;;5033124;28;20025;-63
2022/05/01 10:02:01;;;;;;;4.32;2.80;;;537.60;1971.20;;;;;;5032929;28;20025;-58
2022/05/01 10:04:27;;;;;;;4.45;2.97;;;538.50;1971.20;;;;;;5032976;28;20091;-60
2022/05/01 10:06:55;;;;;;;4.95;2.97;;;538.30;1971.20;;;;;;5032533;28;20064;-60
2022/05/01 10:09:33;;;;;;;4.18;2.72;;;537.80;1971.20;;;;;;5032719;28;20033;-59
2022/05/01 10:12:03;;;;;;;5.18;2.40;;;512.90;1996.80;;;;;;5032611;28;20084;-61
2022/05/01 10:14:29;;;;;;;5.00;2.78;;;537.80;1945.60;;;;;;5032790;28;20076;-61
2022/05/01 10:16:56;;;;;;;4.03;2.42;;;538.20;1971.20;;;;;;5032840;28;20492;-62
2022/05/01 10:19:23;;;;;;;4.20;2.65;;;538.10;1945.60;;;;;;5032902;28;20032;-59
2022/05/01 10:21:51;;;;;;;3.67;2.45;;;538.20;1945.60;;;;;;5032585;28;20526;-62
2022/05/01 10:24:18;;;;;;;4.15;2.85;;;538.50;1945.60;;;;;;5032488;28;20052;-60
2022/05/01 10:27:06;;;;;;;4.60;3.13;;;538.50;1920.00;;;;;;5032593;28;20495;-60
2022/05/01 10:32:52;;;;;;;3.47;2.28;;;538.30;1945.60;;;;;;5031273;28;20072;-64
2022/05/01 10:35:23;;;;;;;5.30;2.53;;;538.40;1894.40;;;;;;4951887;29;20039;-65
2022/05/01 10:38:32;;;;;;;3.80;2.67;;;538.50;1920.00;;;;;;4951821;29;20580;-57
2022/05/01 10:40:59;;;;;;;3.28;2.30;;;538.50;1920.00;;;;;;4894970;29;20108;-58
2022/05/01 10:43:37;;;;;;;3.55;2.33;;;538.50;1894.40;;;;;;4943963;29;20074;-59
2022/05/01 10:46:24;;;;;;;5.20;3.33;;;563.20;1920.00;;;;;;4951851;29;20627;-61
2022/05/01 10:48:50;;;;;;;4.47;3.03;;;563.40;1868.80;;;;;;4951586;29;20046;-57
2022/05/01 10:51:27;;;;;;;3.45;2.78;;;538.50;1868.80;;;;;;4951944;29;20493;-59
2022/05/01 10:54:14;;;;;;;4.13;2.33;;;563.50;1920.00;;;;;;4951931;29;20035;-58
2022/05/01 10:56:42;;;;;;;3.33;2.40;;;563.20;1920.00;;;;;;4951826;29;20466;-59
2022/05/01 10:59:29;;;;;;;6.00;3.50;;;538.50;1868.80;;;;;;4951646;29;20593;-58
2022/05/01 11:01:57;;;;;;;6.15;3.95;;;538.30;1894.40;;;;;;4951918;29;20035;-61
2022/05/01 11:04:23;;;;;;;4.18;3.15;;;538.50;1894.40;;;;;;4951572;29;20137;-59
2022/05/01 11:06:52;;;;;;;4.00;2.78;;;538.50;1894.40;;;;;;4951090;29;20519;-57
2022/05/01 11:09:26;;;;;;;4.50;2.55;;;563.20;1920.00;;;;;;4951368;29;20601;-60
2022/05/01 11:12:11;;;;;;;;;;;563.20;1894.40;;;;;;4978160;28;20578;-57
2022/05/01 11:14:54;;;;;;;4.60;2.85;;;538.50;1894.40;;;;;;5031022;28;19959;-57
2022/05/01 11:17:46;;;;;;;4.07;2.67;;;563.40;1920.00;;;;;;5031699;28;20113;-64
2022/05/01 11:20:14;;;;;;;4.28;2.88;;;563.80;1868.80;;;;;;5031831;28;20105;-61
2022/05/01 11:22:45;;;;;;;4.10;2.85;;;538.50;1792.00;;;;;;5031452;28;20029;-64
2022/05/01 11:25:11;;;;;;;5.63;3.50;;;563.40;1843.20;;;;;;5031484;28;20022;-63
2022/05/01 11:27:50;;;;;;;4.38;2.35;;;563.60;1843.20;;;;;;5031231;28;20069;-61
2022/05/01 11:30:37;;;;;;;4.03;2.70;;;563.80;1843.20;;;;;;5031277;28;20116;-58
2022/05/01 11:33:11;;;;;;;6.20;2.55;;;563.30;1817.60;;;;;;5031360;28;20535;-70
2022/05/01 11:36:02;;;;;;;5.25;3.58;;;563.60;1766.40;;;;;;5030933;28;20061;-58
2022/05/01 11:38:33;;;;;;;5.57;3.03;;;563.90;1817.60;;;;;;5030925;28;20503;-63
2022/05/01 11:41:01;;;;;;;5.07;3.47;;;564.10;1740.80;;;;;;5030903;28;20539;-61
2022/05/01 11:43:28;;;;;;;4.38;3.13;;;589.00;1740.80;;;;;;5030826;28;20049;-63
2022/05/01 11:45:58;;;;;;;4.90;3.17;;;589.00;1740.80;;;;;;5031241;28;20029;-63
2022/05/01 11:48:25;;;;;;;4.78;2.90;;;564.10;1715.20;;;;;;5030938;28;20060;-60
2022/05/01 11:50:52;;;;;;;4.35;3.03;;;589.10;1715.20;;;;;;5030739;28;20021;-58
2022/05/01 11:53:26;;;;;;;3.83;2.85;;;589.00;1715.20;;;;;;5030709;28;20029;-60
2022/05/01 12:04:25;;;;;;;5.82;3.25;;;614.50;1664.00;;;;;;5031257;28;20032;-60
2022/05/01 12:07:00;;;;;;;4.45;3.10;;;589.50;1664.00;;;;;;5030241;28;20041;-60
2022/05/01 12:09:27;;;;;;;4.65;3.22;;;614.70;1638.40;;;;;;5030842;28;20115;-59
2022/05/01 12:11:53;;;;;;;4.85;2.80;;;614.40;1664.00;;;;;;5030831;28;20457;-65
2022/05/01 12:14:19;;;;;;;4.95;3.25;;;614.70;1638.40;;;;;;5030346;28;20083;-59
2022/05/01 12:16:48;;;;;;;5.32;3.20;;;614.80;1638.40;;;;;;5030873;28;20025;-57
2022/05/01 12:19:15;;;;;;;5.55;3.78;;;614.50;1664.00;;;;;;5030366;28;20029;-62
2022/05/01 12:21:42;;;;;;;5.18;3.72;;;614.60;1664.00;;;;;;5030433;28;20063;-59
2022/05/01 12:24:09;;;;;;;4.50;3.38;;;614.80;1664.00;;;;;;5030215;28;20460;-62
2022/05/01 12:26:50;;;;;;;5.53;3.53;;;614.50;1664.00;;;;;;5030540;28;20021;-61
2022/05/01 12:29:16;;;;;;;5.65;3.45;;;614.80;1664.00;;;;;;5030297;28;20097;-60
2022/05/01 12:32:06;;;;;;;8.55;3.28;;;614.80;1689.60;;;;;;5030551;28;20423;-66
2022/05/01 12:35:01;;;;;;;4.53;3.10;;;614.70;1664.00;;;;;;5030145;28;20036;-58
2022/05/01 12:37:38;;;;;;;6.30;4.28;;;614.50;1664.00;;;;;;5029216;28;20041;-59
2022/05/01 12:43:50;;;;;;;3.85;2.90;;;589.70;1715.20;;;;;;5030192;28;20038;-58
2022/05/01 12:45:46;;;;;;;5.32;4.07;;;614.50;1715.20;;;;;;5030097;28;20048;-63
2022/05/01 12:48:14;;;;;;;9.40;4.68;;;589.70;1715.20;;;;;;5030157;28;20033;-63
2022/05/01 12:50:43;;;;;;;6.40;3.10;;;614.40;1740.80;;;;;;5029842;28;20488;-60
2022/05/01 12:53:21;;;;;;;6.43;4.53;;;614.70;1715.20;;;;;;5029946;28;20368;-57
2022/05/01 12:55:47;;;;;;;4.03;3.05;;;614.40;1715.20;;;;;;5032198;28;20025;-60
2022/05/01 12:58:13;;;;;;;6.63;3.97;;;614.60;1715.20;;;;;;5036797;28;20032;-61
2022/05/01 13:00:40;;;;;;;7.43;4.05;;;614.70;1689.60;;;;;;5036510;28;20021;-58